Wabush, Canada
Current Conditions -  °F | °C
As of 12:00 AM on Monday 24 Nov 2014 (Local Time) from CYWK Reporting Station
Clear Clear  
Wind Chill: -5°   Ceiling: Unl
Heat Index:   Visibility: 9mi
Dew Point:   Wind: 7mph
Humidity: 92%   Direction: 250°WSW
Pressure: 29.9"   Gusts: NA
Location:  52.9°N, 66.87°W
Report Text: CYWK 240400Z AUTO 25006KT 9SM CLR M14/M15 A2990 RMK SLP171
Loading
Personal Weather Stations






























Interactive Weather Map New forecast layout! Learn more

10-Day Weather Forecast

Advertisements
Track Severe Weather on mobile